< < Back
Terminal Aerodrome Forecast


Current Version              Previous Versions:   1  2  3  4  5  6  7  8  9  

Terminal Aerodrome Forecast

048
FTUS44 KMOB 251123
TAFPNS
TAF
KPNS 251123Z 2512/2612 18008KT P6SM BKN009 OVC013
      TEMPO 2512/2515 4SM TSRA BKN005CB
     FM251600 21014KT P6SM VCSH SCT009 OVC025
     FM252000 21010KT P6SM SCT030 OVC050
      TEMPO 2520/2524 3SM TSRA BKN020CB
     FM260400 23005KT 4SM BR BKN010=



Latest METAR

778
SAUS70 KWBC 260200 RRJ
MTRPNS
METAR KPNS 260153Z 14003KT 10SM CLR 21/20 A2971 RMK AO2 SLP063
T02110200


USA.gov is the U.S. government's official web portal to all federal, state and local government web resources and services.